• Join FlightAware (Why Join?)
  • Login
  • US Flag 
07:03AM EST


 

Airport Tracker/Info


-or-


 

Live Flight TrackerFlight Track Log ✈ SWA2139 ✈ 26-Apr-2013 ✈ KAUS - KELP

Flight Track Log - Related Links

Times and Time Zones

All times are in EDT time to prevent confusion due to time zone crossing. See the SWA2139 flight status page for this flight to view local times or setup timezone preferences in your user account.

Time Position Orientation Groundspeed Altitude Reporting Facility
EDT Latitude Longitude Course Direction KTS MPH feet Rate Location/Type
08:36AM 30.1131 -97.7175 284° West 179 206 5,100  Level Houston Center
08:37AM 30.1567 -97.8014 301° West 285 328 7,700 3,180 Climbing Houston Center
08:38AM 30.2097 -97.8847 306° West 297 342 11,700 3,000 Climbing Houston Center
08:39AM 30.2364 -97.9908 286° West 350 403 13,900 2,460 Climbing Houston Center
08:40AM 30.3421 -98.3428 284° West  Level Estimated
08:40AM 30.2597 -98.1061 283° West 367 422 16,800  Level Houston Center
08:41AM 30.3664 -98.4552 284° West  Level Estimated
08:41AM 30.2856 -98.2356 283° West 382 440 19,700  Level Houston Center
08:42AM 30.3089 -98.3500 283° West 392 451 21,800 1,920 Climbing Houston Center
08:43AM 30.3353 -98.4761 284° West 406 467 23,700 1,980 Climbing Houston Center
08:44AM 30.3608 -98.6086 283° West 415 478 26,000 2,040 Climbing Houston Center
08:45AM 30.3864 -98.7406 283° West 416 479 28,000 2,040 Climbing Houston Center
08:46AM 30.4144 -98.8714 284° West 414 476 30,200 2,220 Climbing Houston Center
08:47AM 30.4433 -99.0189 283° West 399 459 32,600 2,040 Climbing Houston Center
08:48AM 30.4672 -99.1386 283° West 390 449 34,500 1,620 Climbing Houston Center
08:49AM 30.4914 -99.2572 283° West 382 440 36,000 720 Climbing Houston Center
08:50AM 30.5131 -99.3750 282° West 376 433 36,000  Level Houston Center
08:51AM 30.5353 -99.4894 283° West 368 423 36,000  Level Houston Center
08:52AM 30.5583 -99.6042 283° West 367 422 36,000  Level Houston Center
08:53AM 30.5847 -99.7425 283° West 368 423 36,000  Level Houston Center
08:54AM 30.6072 -99.8600 283° West 373 429 36,000  Level Houston Center
08:55AM 30.6308 -99.9781 283° West 376 433 36,000  Level Houston Center
08:56AM 30.6558 -100.0967 284° West 379 436 36,000  Level Houston Center
08:57AM 30.6792 -100.2161 283° West 377 434 36,000  Level Houston Center
08:58AM 30.7014 -100.3322 283° West 377 434 36,000  Level Houston Center
08:59AM 30.7300 -100.4703 284° West 374 430 36,000  Level Houston Center
09:00AM 30.7533 -100.5878 283° West 376 433 36,000  Level Houston Center
09:01AM 30.7764 -100.7047 283° West 372 428 36,000  Level Houston Center
09:02AM 30.7983 -100.8222 282° West 371 427 36,000  Level Houston Center
09:03AM 30.8222 -100.9411 283° West 378 435 36,000  Level Houston Center
09:04AM 30.8442 -101.0581 282° West 374 430 36,000  Level Houston Center
09:05AM 30.8731 -101.1969 284° West 371 427 36,000  Level Houston Center
09:06AM 30.8978 -101.3139 284° West 373 429 36,000  Level Houston Center
09:07AM 30.9169 -101.4336 281° West 376 433 36,000  Level Houston Center
09:08AM 30.9231 -101.4622 284° West 374 430 36,000  Level Albuquerque Center
09:09AM 30.9442 -101.5814 282° West 375 432 36,000  Level Albuquerque Center
09:10AM 30.9672 -101.6997 283° West 376 433 36,000  Level Albuquerque Center
09:11AM 30.9900 -101.8183 283° West 375 432 36,000  Level Albuquerque Center
09:12AM 31.0122 -101.9397 282° West 375 432 36,000  Level Albuquerque Center
09:13AM 31.0344 -102.0633 282° West 383 441 36,000  Level Albuquerque Center
09:14AM 31.0567 -102.1825 282° West 379 436 36,000  Level Albuquerque Center
09:15AM 31.0783 -102.3036 282° West 380 437 36,000  Level Albuquerque Center
09:16AM 31.1008 -102.4244 282° West 381 438 36,000  Level Albuquerque Center
09:17AM 31.1228 -102.5467 282° West 379 436 36,000  Level Albuquerque Center
09:18AM 31.1442 -102.6664 282° West 375 432 36,000  Level Albuquerque Center
09:19AM 31.1658 -102.7878 282° West 380 437 36,000  Level Albuquerque Center
09:20AM 31.1919 -102.9311 282° West 379 436 36,000  Level Albuquerque Center
09:21AM 31.2119 -103.0500 281° West 375 432 36,000  Level Albuquerque Center
09:22AM 31.2336 -103.1692 282° West 376 433 36,000  Level Albuquerque Center
09:23AM 31.2531 -103.2883 281° West 376 433 36,000  Level Albuquerque Center
09:24AM 31.2750 -103.4067 282° West 372 428 36,000  Level Albuquerque Center
09:25AM 31.2953 -103.5250 281° West 373 429 36,000  Level Albuquerque Center
09:26AM 31.3161 -103.6436 282° West 373 429 36,000  Level Albuquerque Center
09:27AM 31.3361 -103.7622 281° West 373 429 36,000  Level Albuquerque Center
09:28AM 31.3550 -103.8756 281° West 373 429 36,000  Level Albuquerque Center
09:29AM 31.3750 -103.9947 281° West 375 432 36,000  Level Albuquerque Center
09:30AM 31.3964 -104.1133 282° West 375 432 36,000  Level Albuquerque Center
09:31AM 31.4197 -104.2564 281° West 375 432 36,000  Level Albuquerque Center
09:32AM 31.4397 -104.3758 281° West 376 433 36,000 -420 Level Albuquerque Center
09:33AM 31.4581 -104.4958 280° West 377 434 35,200 -900 Descending Albuquerque Center
09:34AM 31.4692 -104.6139 276° West 371 427 34,200 -960 Descending Albuquerque Center
09:35AM 31.4819 -104.7317 277° West 369 425 33,300 -960 Descending Albuquerque Center
09:36AM 31.4947 -104.8489 277° West 367 422 32,300 -960 Descending Albuquerque Center
09:37AM 31.5072 -104.9700 277° West 374 430 31,400 -1,680 Descending Albuquerque Center
09:38AM 31.5200 -105.0928 277° West 381 438 29,000 -2,520 Descending Albuquerque Center
09:39AM 31.5308 -105.2106 276° West 371 427 26,300 -2,880 Descending Albuquerque Center
09:40AM 31.5450 -105.3486 277° West 362 417 23,200 -2,760 Descending Albuquerque Center
09:41AM 31.5547 -105.4575 276° West 341 392 20,700 -2,520 Descending Albuquerque Center
09:42AM 31.5664 -105.5656 277° West 320 368 18,200 -2,340 Descending Albuquerque Center
09:43AM 31.5731 -105.6689 274° West 314 361 16,000 -2,100 Descending Albuquerque Center
09:44AM 31.5886 -105.7647 281° West 297 342 14,000 -2,040 Descending Albuquerque Center
09:45AM 31.6256 -105.8478 298° West 283 326 12,000 -1,860 Descending Albuquerque Center
09:46AM 31.6614 -105.9258 298° West 274 315 10,300 -1,740 Descending Albuquerque Center
09:47AM 31.6928 -106.0031 296° West 258 297 8,500 -1,680 Descending Albuquerque Center
09:48AM 31.7253 -106.0747 298° West 251 289 7,000 -1,020 Descending Albuquerque Center
09:49AM 31.7539 -106.1500 294° West 231 266 6,500 -480 Descending Albuquerque Center
09:50AM 31.7803 -106.2233 293° West 224 258 6,000 -540 Descending Albuquerque Center
09:51AM 31.7950 -106.2739 289° West 170 196 5,400 -600 Descending Albuquerque Center
09:52AM 31.7972 -106.3167 274° West 117 135 4,900 -660 Descending Albuquerque Center
09:53AM 31.8011 -106.3553 277° West 123 142 4,100 -780 Descending Albuquerque Center
09:55AM 31.8000 -106.3667 270° West  Level FlightAware Approximate
10:02AM 31.8072 -106.3764 270° West  Level Estimated
10:03AM 31.8072 -106.3764 270° West  Level Estimated
10:04AM 31.8072 -106.3764 270° West  Level Estimated
10:05AM 31.8072 -106.3764 270° West  Level Estimated
10:06AM 31.8072 -106.3764 270° West  Level Estimated